sensor_id;sensor_type;location;lat;lon;timestamp;P1;durP1;ratioP1;P2;durP2;ratioP2
65210;SDS011;51794;52.758;55.792;2023-02-12T00:00:36;12.65;;;5.95;;
65210;SDS011;51794;52.758;55.792;2023-02-12T00:03:03;10.02;;;4.88;;
65210;SDS011;51794;52.758;55.792;2023-02-12T00:05:29;12.15;;;6.00;;
65210;SDS011;51794;52.758;55.792;2023-02-12T00:07:56;9.30;;;5.10;;
65210;SDS011;51794;52.758;55.792;2023-02-12T00:10:22;13.07;;;5.97;;
65210;SDS011;51794;52.758;55.792;2023-02-12T00:12:49;11.65;;;5.72;;
65210;SDS011;51794;52.758;55.792;2023-02-12T00:15:17;15.50;;;6.75;;
65210;SDS011;51794;52.758;55.792;2023-02-12T00:17:43;13.98;;;6.63;;
65210;SDS011;51794;52.758;55.792;2023-02-12T00:20:09;15.43;;;6.55;;
65210;SDS011;51794;52.758;55.792;2023-02-12T00:22:35;14.65;;;7.10;;
65210;SDS011;51794;52.758;55.792;2023-02-12T00:25:01;12.00;;;6.40;;
65210;SDS011;51794;52.758;55.792;2023-02-12T00:27:31;13.80;;;7.45;;
65210;SDS011;51794;52.758;55.792;2023-02-12T00:29:57;14.10;;;6.65;;
65210;SDS011;51794;52.758;55.792;2023-02-12T00:32:23;14.63;;;7.10;;
65210;SDS011;51794;52.758;55.792;2023-02-12T00:34:49;14.60;;;7.18;;
65210;SDS011;51794;52.758;55.792;2023-02-12T00:37:15;15.00;;;7.20;;
65210;SDS011;51794;52.758;55.792;2023-02-12T00:39:42;15.52;;;7.15;;
65210;SDS011;51794;52.758;55.792;2023-02-12T00:42:08;13.95;;;7.65;;
65210;SDS011;51794;52.758;55.792;2023-02-12T00:44:34;13.60;;;7.55;;
65210;SDS011;51794;52.758;55.792;2023-02-12T00:47:01;18.08;;;7.88;;
65210;SDS011;51794;52.758;55.792;2023-02-12T00:49:30;12.30;;;5.47;;
65210;SDS011;51794;52.758;55.792;2023-02-12T00:52:00;18.27;;;8.07;;
65210;SDS011;51794;52.758;55.792;2023-02-12T00:54:27;15.80;;;7.93;;
65210;SDS011;51794;52.758;55.792;2023-02-12T00:56:54;16.95;;;8.10;;
65210;SDS011;51794;52.758;55.792;2023-02-12T00:59:24;17.13;;;7.47;;
65210;SDS011;51794;52.758;55.792;2023-02-12T01:01:51;15.52;;;7.30;;
65210;SDS011;51794;52.758;55.792;2023-02-12T01:04:18;15.70;;;8.57;;
65210;SDS011;51794;52.758;55.792;2023-02-12T01:06:45;14.63;;;7.90;;
65210;SDS011;51794;52.758;55.792;2023-02-12T01:09:11;13.93;;;6.25;;
65210;SDS011;51794;52.758;55.792;2023-02-12T01:11:37;12.68;;;5.63;;
65210;SDS011;51794;52.758;55.792;2023-02-12T01:14:03;12.60;;;5.90;;
65210;SDS011;51794;52.758;55.792;2023-02-12T01:16:29;12.77;;;6.72;;
65210;SDS011;51794;52.758;55.792;2023-02-12T01:19:00;12.50;;;5.72;;
65210;SDS011;51794;52.758;55.792;2023-02-12T01:21:29;11.48;;;6.05;;
65210;SDS011;51794;52.758;55.792;2023-02-12T01:23:57;11.07;;;5.68;;
65210;SDS011;51794;52.758;55.792;2023-02-12T01:26:23;11.50;;;5.45;;
65210;SDS011;51794;52.758;55.792;2023-02-12T01:28:51;14.60;;;6.53;;
65210;SDS011;51794;52.758;55.792;2023-02-12T01:31:19;13.55;;;7.75;;
65210;SDS011;51794;52.758;55.792;2023-02-12T01:33:51;13.50;;;6.00;;
65210;SDS011;51794;52.758;55.792;2023-02-12T01:36:18;13.60;;;6.43;;
65210;SDS011;51794;52.758;55.792;2023-02-12T01:38:44;12.30;;;5.45;;
65210;SDS011;51794;52.758;55.792;2023-02-12T01:41:12;12.35;;;6.43;;
65210;SDS011;51794;52.758;55.792;2023-02-12T01:43:39;16.17;;;7.65;;
65210;SDS011;51794;52.758;55.792;2023-02-12T01:46:06;14.55;;;7.18;;
65210;SDS011;51794;52.758;55.792;2023-02-12T01:48:36;15.95;;;7.68;;
65210;SDS011;51794;52.758;55.792;2023-02-12T01:51:05;14.65;;;7.25;;
65210;SDS011;51794;52.758;55.792;2023-02-12T01:53:37;15.52;;;7.78;;
65210;SDS011;51794;52.758;55.792;2023-02-12T01:56:07;15.75;;;6.53;;
65210;SDS011;51794;52.758;55.792;2023-02-12T01:58:37;13.20;;;6.00;;
65210;SDS011;51794;52.758;55.792;2023-02-12T02:01:07;16.80;;;7.88;;
65210;SDS011;51794;52.758;55.792;2023-02-12T02:03:37;16.77;;;7.38;;
65210;SDS011;51794;52.758;55.792;2023-02-12T02:06:10;14.35;;;5.88;;
65210;SDS011;51794;52.758;55.792;2023-02-12T02:08:42;14.80;;;6.43;;
65210;SDS011;51794;52.758;55.792;2023-02-12T02:11:08;15.93;;;7.43;;
65210;SDS011;51794;52.758;55.792;2023-02-12T02:13:53;19.15;;;8.68;;
65210;SDS011;51794;52.758;55.792;2023-02-12T02:17:02;16.95;;;7.75;;
65210;SDS011;51794;52.758;55.792;2023-02-12T02:30:57;17.67;;;8.80;;
65210;SDS011;51794;52.758;55.792;2023-02-12T02:33:35;18.52;;;7.47;;
65210;SDS011;51794;52.758;55.792;2023-02-12T02:36:12;17.40;;;8.27;;
65210;SDS011;51794;52.758;55.792;2023-02-12T02:41:49;18.05;;;8.30;;
65210;SDS011;51794;52.758;55.792;2023-02-12T02:44:30;15.90;;;7.78;;
65210;SDS011;51794;52.758;55.792;2023-02-12T02:47:02;18.73;;;7.75;;
65210;SDS011;51794;52.758;55.792;2023-02-12T02:52:03;20.25;;;7.75;;
65210;SDS011;51794;52.758;55.792;2023-02-12T02:55:07;17.58;;;6.72;;
65210;SDS011;51794;52.758;55.792;2023-02-12T02:57:31;16.45;;;6.90;;
65210;SDS011;51794;52.758;55.792;2023-02-12T03:00:13;16.45;;;6.93;;
65210;SDS011;51794;52.758;55.792;2023-02-12T03:02:45;15.20;;;6.50;;
65210;SDS011;51794;52.758;55.792;2023-02-12T03:05:22;13.13;;;6.00;;
65210;SDS011;51794;52.758;55.792;2023-02-12T03:07:55;17.10;;;6.53;;
65210;SDS011;51794;52.758;55.792;2023-02-12T03:10:26;17.50;;;6.65;;
65210;SDS011;51794;52.758;55.792;2023-02-12T03:12:58;15.90;;;7.28;;
65210;SDS011;51794;52.758;55.792;2023-02-12T03:18:04;17.92;;;7.90;;
65210;SDS011;51794;52.758;55.792;2023-02-12T03:20:42;11.73;;;5.65;;
65210;SDS011;51794;52.758;55.792;2023-02-12T03:23:13;13.48;;;6.15;;
65210;SDS011;51794;52.758;55.792;2023-02-12T03:25:47;15.60;;;6.50;;
65210;SDS011;51794;52.758;55.792;2023-02-12T03:28:19;10.68;;;5.03;;
65210;SDS011;51794;52.758;55.792;2023-02-12T03:31:07;10.55;;;4.80;;
65210;SDS011;51794;52.758;55.792;2023-02-12T03:33:50;13.07;;;5.72;;
65210;SDS011;51794;52.758;55.792;2023-02-12T03:39:32;11.00;;;5.65;;
65210;SDS011;51794;52.758;55.792;2023-02-12T03:42:09;11.70;;;5.03;;
65210;SDS011;51794;52.758;55.792;2023-02-12T03:44:55;12.98;;;6.28;;
65210;SDS011;51794;52.758;55.792;2023-02-12T03:47:47;10.80;;;4.55;;
65210;SDS011;51794;52.758;55.792;2023-02-12T03:50:16;13.40;;;5.47;;
65210;SDS011;51794;52.758;55.792;2023-02-12T03:52:48;9.73;;;5.25;;
65210;SDS011;51794;52.758;55.792;2023-02-12T03:55:15;11.75;;;4.75;;
65210;SDS011;51794;52.758;55.792;2023-02-12T03:57:43;12.50;;;5.25;;
65210;SDS011;51794;52.758;55.792;2023-02-12T04:00:17;10.60;;;5.78;;
65210;SDS011;51794;52.758;55.792;2023-02-12T04:02:45;11.18;;;5.30;;
65210;SDS011;51794;52.758;55.792;2023-02-12T04:05:16;10.35;;;4.90;;
65210;SDS011;51794;52.758;55.792;2023-02-12T04:07:43;11.70;;;5.53;;
65210;SDS011;51794;52.758;55.792;2023-02-12T04:10:09;9.00;;;4.43;;
65210;SDS011;51794;52.758;55.792;2023-02-12T04:12:39;10.70;;;4.22;;
65210;SDS011;51794;52.758;55.792;2023-02-12T04:15:28;7.70;;;4.07;;
65210;SDS011;51794;52.758;55.792;2023-02-12T04:37:34;9.68;;;5.05;;
65210;SDS011;51794;52.758;55.792;2023-02-12T04:40:06;14.35;;;6.57;;
65210;SDS011;51794;52.758;55.792;2023-02-12T04:42:41;10.13;;;5.53;;
65210;SDS011;51794;52.758;55.792;2023-02-12T04:45:12;8.45;;;4.68;;
65210;SDS011;51794;52.758;55.792;2023-02-12T04:47:41;10.93;;;5.88;;
65210;SDS011;51794;52.758;55.792;2023-02-12T04:50:07;13.45;;;6.47;;
65210;SDS011;51794;52.758;55.792;2023-02-12T04:52:34;8.50;;;4.38;;
65210;SDS011;51794;52.758;55.792;2023-02-12T04:55:00;11.35;;;5.60;;
65210;SDS011;51794;52.758;55.792;2023-02-12T04:57:25;10.38;;;4.97;;
65210;SDS011;51794;52.758;55.792;2023-02-12T04:59:51;12.38;;;6.28;;
65210;SDS011;51794;52.758;55.792;2023-02-12T05:02:17;10.57;;;5.82;;
65210;SDS011;51794;52.758;55.792;2023-02-12T05:04:43;10.27;;;5.05;;
65210;SDS011;51794;52.758;55.792;2023-02-12T05:07:10;11.88;;;5.78;;
65210;SDS011;51794;52.758;55.792;2023-02-12T05:09:36;9.55;;;5.45;;
65210;SDS011;51794;52.758;55.792;2023-02-12T05:12:02;11.98;;;4.65;;
65210;SDS011;51794;52.758;55.792;2023-02-12T05:14:28;9.90;;;5.22;;
65210;SDS011;51794;52.758;55.792;2023-02-12T05:16:54;10.73;;;5.20;;
65210;SDS011;51794;52.758;55.792;2023-02-12T05:19:20;11.00;;;5.57;;
65210;SDS011;51794;52.758;55.792;2023-02-12T05:21:48;11.50;;;6.13;;
65210;SDS011;51794;52.758;55.792;2023-02-12T05:24:15;9.60;;;4.97;;
65210;SDS011;51794;52.758;55.792;2023-02-12T05:26:41;12.45;;;5.68;;
65210;SDS011;51794;52.758;55.792;2023-02-12T05:29:07;9.80;;;5.25;;
65210;SDS011;51794;52.758;55.792;2023-02-12T05:31:33;8.93;;;4.90;;
65210;SDS011;51794;52.758;55.792;2023-02-12T05:33:59;10.40;;;5.60;;
65210;SDS011;51794;52.758;55.792;2023-02-12T05:36:25;12.65;;;6.00;;
65210;SDS011;51794;52.758;55.792;2023-02-12T05:38:52;10.15;;;5.15;;
65210;SDS011;51794;52.758;55.792;2023-02-12T05:41:22;11.38;;;5.20;;
65210;SDS011;51794;52.758;55.792;2023-02-12T05:43:49;12.32;;;5.93;;
65210;SDS011;51794;52.758;55.792;2023-02-12T05:46:17;10.23;;;5.50;;
65210;SDS011;51794;52.758;55.792;2023-02-12T05:48:44;9.93;;;5.13;;
65210;SDS011;51794;52.758;55.792;2023-02-12T05:51:14;9.68;;;5.38;;
65210;SDS011;51794;52.758;55.792;2023-02-12T05:53:46;9.27;;;4.80;;
65210;SDS011;51794;52.758;55.792;2023-02-12T05:56:17;10.70;;;6.00;;
65210;SDS011;51794;52.758;55.792;2023-02-12T05:58:46;7.20;;;4.28;;
65210;SDS011;51794;52.758;55.792;2023-02-12T06:01:15;7.25;;;4.32;;
65210;SDS011;51794;52.758;55.792;2023-02-12T06:03:46;9.25;;;4.57;;
65210;SDS011;51794;52.758;55.792;2023-02-12T06:06:12;8.57;;;4.18;;
65210;SDS011;51794;52.758;55.792;2023-02-12T06:08:38;7.80;;;4.22;;
65210;SDS011;51794;52.758;55.792;2023-02-12T06:11:06;8.02;;;5.05;;
65210;SDS011;51794;52.758;55.792;2023-02-12T06:13:33;6.53;;;3.47;;
65210;SDS011;51794;52.758;55.792;2023-02-12T06:15:59;6.40;;;2.97;;
65210;SDS011;51794;52.758;55.792;2023-02-12T06:18:26;8.60;;;4.43;;
65210;SDS011;51794;52.758;55.792;2023-02-12T06:20:52;8.60;;;4.15;;
65210;SDS011;51794;52.758;55.792;2023-02-12T06:23:21;7.80;;;4.07;;
65210;SDS011;51794;52.758;55.792;2023-02-12T06:25:48;7.82;;;4.05;;
65210;SDS011;51794;52.758;55.792;2023-02-12T06:28:16;8.10;;;4.30;;
65210;SDS011;51794;52.758;55.792;2023-02-12T06:30:42;8.90;;;4.88;;
65210;SDS011;51794;52.758;55.792;2023-02-12T06:33:08;7.40;;;3.97;;
65210;SDS011;51794;52.758;55.792;2023-02-12T06:35:34;7.93;;;4.50;;
65210;SDS011;51794;52.758;55.792;2023-02-12T06:38:01;7.95;;;4.60;;
65210;SDS011;51794;52.758;55.792;2023-02-12T06:40:27;6.60;;;3.78;;
65210;SDS011;51794;52.758;55.792;2023-02-12T06:42:53;8.50;;;4.70;;
65210;SDS011;51794;52.758;55.792;2023-02-12T06:45:19;7.63;;;4.38;;
65210;SDS011;51794;52.758;55.792;2023-02-12T06:47:45;8.80;;;4.90;;
65210;SDS011;51794;52.758;55.792;2023-02-12T06:50:11;8.27;;;4.13;;
65210;SDS011;51794;52.758;55.792;2023-02-12T06:52:37;7.28;;;4.28;;
65210;SDS011;51794;52.758;55.792;2023-02-12T06:55:03;5.65;;;3.53;;
65210;SDS011;51794;52.758;55.792;2023-02-12T06:57:29;7.38;;;4.72;;
65210;SDS011;51794;52.758;55.792;2023-02-12T06:59:55;7.63;;;4.43;;
65210;SDS011;51794;52.758;55.792;2023-02-12T07:02:21;6.43;;;4.22;;
65210;SDS011;51794;52.758;55.792;2023-02-12T07:04:47;5.63;;;3.65;;
65210;SDS011;51794;52.758;55.792;2023-02-12T07:07:13;6.97;;;4.00;;
65210;SDS011;51794;52.758;55.792;2023-02-12T07:09:39;7.13;;;4.30;;
65210;SDS011;51794;52.758;55.792;2023-02-12T07:12:05;7.30;;;4.70;;
65210;SDS011;51794;52.758;55.792;2023-02-12T07:14:31;7.53;;;4.03;;
65210;SDS011;51794;52.758;55.792;2023-02-12T07:16:57;6.35;;;4.25;;
65210;SDS011;51794;52.758;55.792;2023-02-12T07:19:23;8.20;;;4.25;;
65210;SDS011;51794;52.758;55.792;2023-02-12T07:21:49;8.88;;;4.15;;
65210;SDS011;51794;52.758;55.792;2023-02-12T07:24:15;8.48;;;4.43;;
65210;SDS011;51794;52.758;55.792;2023-02-12T07:26:42;6.10;;;3.45;;
65210;SDS011;51794;52.758;55.792;2023-02-12T07:29:09;6.75;;;3.70;;
65210;SDS011;51794;52.758;55.792;2023-02-12T07:31:35;6.65;;;3.53;;
65210;SDS011;51794;52.758;55.792;2023-02-12T07:34:01;8.38;;;4.53;;
65210;SDS011;51794;52.758;55.792;2023-02-12T07:36:28;6.57;;;3.92;;
65210;SDS011;51794;52.758;55.792;2023-02-12T07:38:56;7.40;;;4.45;;
65210;SDS011;51794;52.758;55.792;2023-02-12T07:41:33;6.43;;;3.95;;
65210;SDS011;51794;52.758;55.792;2023-02-12T07:44:04;5.82;;;3.90;;
65210;SDS011;51794;52.758;55.792;2023-02-12T07:46:35;7.35;;;4.43;;
65210;SDS011;51794;52.758;55.792;2023-02-12T07:49:04;7.05;;;4.03;;
65210;SDS011;51794;52.758;55.792;2023-02-12T07:51:32;6.05;;;4.05;;
65210;SDS011;51794;52.758;55.792;2023-02-12T07:54:00;6.38;;;4.32;;
65210;SDS011;51794;52.758;55.792;2023-02-12T07:56:27;6.80;;;3.90;;
65210;SDS011;51794;52.758;55.792;2023-02-12T07:58:57;5.75;;;3.05;;
65210;SDS011;51794;52.758;55.792;2023-02-12T08:01:29;7.88;;;4.13;;
65210;SDS011;51794;52.758;55.792;2023-02-12T08:04:00;6.55;;;3.95;;
65210;SDS011;51794;52.758;55.792;2023-02-12T08:06:28;5.88;;;3.92;;
65210;SDS011;51794;52.758;55.792;2023-02-12T08:08:57;6.78;;;4.30;;
65210;SDS011;51794;52.758;55.792;2023-02-12T08:11:25;6.65;;;4.35;;
65210;SDS011;51794;52.758;55.792;2023-02-12T08:13:52;6.10;;;3.33;;
65210;SDS011;51794;52.758;55.792;2023-02-12T08:16:19;5.93;;;3.10;;
65210;SDS011;51794;52.758;55.792;2023-02-12T08:18:48;7.40;;;3.70;;
65210;SDS011;51794;52.758;55.792;2023-02-12T08:21:15;9.57;;;4.15;;
65210;SDS011;51794;52.758;55.792;2023-02-12T08:23:43;8.30;;;4.88;;
65210;SDS011;51794;52.758;55.792;2023-02-12T08:26:11;7.32;;;3.75;;
65210;SDS011;51794;52.758;55.792;2023-02-12T08:28:49;8.20;;;4.30;;
65210;SDS011;51794;52.758;55.792;2023-02-12T08:31:21;7.90;;;3.90;;
65210;SDS011;51794;52.758;55.792;2023-02-12T08:33:49;5.32;;;3.80;;
65210;SDS011;51794;52.758;55.792;2023-02-12T08:36:18;6.05;;;3.72;;
65210;SDS011;51794;52.758;55.792;2023-02-12T08:38:46;6.63;;;3.95;;
65210;SDS011;51794;52.758;55.792;2023-02-12T08:41:13;7.93;;;4.22;;
65210;SDS011;51794;52.758;55.792;2023-02-12T08:43:48;7.20;;;4.25;;
65210;SDS011;51794;52.758;55.792;2023-02-12T08:46:16;5.35;;;3.38;;
65210;SDS011;51794;52.758;55.792;2023-02-12T08:48:44;7.10;;;4.20;;
65210;SDS011;51794;52.758;55.792;2023-02-12T08:51:12;6.20;;;3.40;;
65210;SDS011;51794;52.758;55.792;2023-02-12T08:53:51;6.68;;;4.20;;
65210;SDS011;51794;52.758;55.792;2023-02-12T08:56:19;7.85;;;4.60;;
65210;SDS011;51794;52.758;55.792;2023-02-12T08:58:46;7.28;;;3.95;;
65210;SDS011;51794;52.758;55.792;2023-02-12T09:01:13;6.22;;;3.85;;
65210;SDS011;51794;52.758;55.792;2023-02-12T09:03:41;6.72;;;3.88;;
65210;SDS011;51794;52.758;55.792;2023-02-12T09:06:07;7.68;;;3.72;;
65210;SDS011;51794;52.758;55.792;2023-02-12T09:08:34;7.90;;;3.95;;
65210;SDS011;51794;52.758;55.792;2023-02-12T09:11:05;6.45;;;3.63;;
65210;SDS011;51794;52.758;55.792;2023-02-12T09:13:33;7.60;;;3.90;;
65210;SDS011;51794;52.758;55.792;2023-02-12T09:16:00;7.15;;;4.72;;
65210;SDS011;51794;52.758;55.792;2023-02-12T09:18:28;6.70;;;3.40;;
65210;SDS011;51794;52.758;55.792;2023-02-12T09:20:54;5.50;;;3.55;;
65210;SDS011;51794;52.758;55.792;2023-02-12T09:23:25;8.65;;;3.58;;
65210;SDS011;51794;52.758;55.792;2023-02-12T09:25:51;6.88;;;4.10;;
65210;SDS011;51794;52.758;55.792;2023-02-12T09:28:19;7.25;;;4.15;;
65210;SDS011;51794;52.758;55.792;2023-02-12T09:30:45;7.18;;;3.97;;
65210;SDS011;51794;52.758;55.792;2023-02-12T09:33:11;7.90;;;4.78;;
65210;SDS011;51794;52.758;55.792;2023-02-12T09:35:37;7.82;;;4.18;;
65210;SDS011;51794;52.758;55.792;2023-02-12T09:38:04;6.80;;;4.30;;
65210;SDS011;51794;52.758;55.792;2023-02-12T09:45:36;6.15;;;4.10;;
65210;SDS011;51794;52.758;55.792;2023-02-12T09:50:55;8.27;;;4.10;;
65210;SDS011;51794;52.758;55.792;2023-02-12T09:53:25;6.93;;;2.95;;
65210;SDS011;51794;52.758;55.792;2023-02-12T09:55:54;6.85;;;4.05;;
65210;SDS011;51794;52.758;55.792;2023-02-12T09:58:28;5.75;;;3.40;;
65210;SDS011;51794;52.758;55.792;2023-02-12T10:01:09;5.75;;;3.95;;
65210;SDS011;51794;52.758;55.792;2023-02-12T10:03:37;7.68;;;4.38;;
65210;SDS011;51794;52.758;55.792;2023-02-12T10:06:04;6.88;;;4.10;;
65210;SDS011;51794;52.758;55.792;2023-02-12T10:17:36;4.05;;;2.53;;
65210;SDS011;51794;52.758;55.792;2023-02-12T10:23:20;5.47;;;3.67;;
65210;SDS011;51794;52.758;55.792;2023-02-12T10:25:56;5.93;;;4.05;;
65210;SDS011;51794;52.758;55.792;2023-02-12T10:31:01;8.98;;;4.35;;
65210;SDS011;51794;52.758;55.792;2023-02-12T10:33:38;7.13;;;4.03;;
65210;SDS011;51794;52.758;55.792;2023-02-12T10:38:55;6.57;;;3.70;;
65210;SDS011;51794;52.758;55.792;2023-02-12T10:41:26;6.93;;;4.05;;
65210;SDS011;51794;52.758;55.792;2023-02-12T10:43:55;6.00;;;3.55;;
65210;SDS011;51794;52.758;55.792;2023-02-12T10:46:22;7.20;;;4.00;;
65210;SDS011;51794;52.758;55.792;2023-02-12T10:48:48;7.25;;;4.60;;
65210;SDS011;51794;52.758;55.792;2023-02-12T10:54:34;7.13;;;3.88;;
65210;SDS011;51794;52.758;55.792;2023-02-12T10:59:33;7.57;;;3.40;;
65210;SDS011;51794;52.758;55.792;2023-02-12T11:01:59;7.18;;;4.25;;
65210;SDS011;51794;52.758;55.792;2023-02-12T11:04:26;8.43;;;3.95;;
65210;SDS011;51794;52.758;55.792;2023-02-12T11:07:01;6.03;;;3.53;;
65210;SDS011;51794;52.758;55.792;2023-02-12T11:09:33;6.30;;;3.08;;
65210;SDS011;51794;52.758;55.792;2023-02-12T11:12:01;8.23;;;4.00;;
65210;SDS011;51794;52.758;55.792;2023-02-12T11:14:28;8.38;;;4.47;;
65210;SDS011;51794;52.758;55.792;2023-02-12T11:16:55;8.07;;;4.22;;
65210;SDS011;51794;52.758;55.792;2023-02-12T11:19:25;6.38;;;4.25;;
65210;SDS011;51794;52.758;55.792;2023-02-12T11:22:07;6.32;;;3.33;;
65210;SDS011;51794;52.758;55.792;2023-02-12T11:24:36;8.93;;;3.85;;
65210;SDS011;51794;52.758;55.792;2023-02-12T11:29:41;8.00;;;4.10;;
65210;SDS011;51794;52.758;55.792;2023-02-12T11:32:16;6.20;;;3.80;;
65210;SDS011;51794;52.758;55.792;2023-02-12T11:34:46;4.47;;;2.88;;
65210;SDS011;51794;52.758;55.792;2023-02-12T11:37:30;6.95;;;3.72;;
65210;SDS011;51794;52.758;55.792;2023-02-12T11:40:00;8.55;;;4.82;;
65210;SDS011;51794;52.758;55.792;2023-02-12T11:42:28;7.55;;;4.57;;
65210;SDS011;51794;52.758;55.792;2023-02-12T11:44:59;6.03;;;3.90;;
65210;SDS011;51794;52.758;55.792;2023-02-12T11:47:29;6.90;;;4.97;;
65210;SDS011;51794;52.758;55.792;2023-02-12T11:50:13;7.43;;;3.65;;
65210;SDS011;51794;52.758;55.792;2023-02-12T11:52:52;7.72;;;4.55;;
65210;SDS011;51794;52.758;55.792;2023-02-12T11:55:23;5.85;;;3.63;;
65210;SDS011;51794;52.758;55.792;2023-02-12T11:58:03;6.40;;;3.60;;
65210;SDS011;51794;52.758;55.792;2023-02-12T12:00:39;6.75;;;3.83;;
65210;SDS011;51794;52.758;55.792;2023-02-12T12:05:53;6.03;;;3.47;;
65210;SDS011;51794;52.758;55.792;2023-02-12T12:08:30;5.43;;;4.13;;
65210;SDS011;51794;52.758;55.792;2023-02-12T12:11:19;6.20;;;3.63;;
65210;SDS011;51794;52.758;55.792;2023-02-12T12:13:53;6.18;;;3.63;;
65210;SDS011;51794;52.758;55.792;2023-02-12T12:16:32;5.90;;;3.50;;
65210;SDS011;51794;52.758;55.792;2023-02-12T12:19:23;5.70;;;3.15;;
65210;SDS011;51794;52.758;55.792;2023-02-12T12:22:39;8.45;;;3.75;;
65210;SDS011;51794;52.758;55.792;2023-02-12T12:32:59;7.65;;;4.30;;
65210;SDS011;51794;52.758;55.792;2023-02-12T12:35:38;9.35;;;4.75;;
65210;SDS011;51794;52.758;55.792;2023-02-12T12:38:30;8.30;;;4.30;;
65210;SDS011;51794;52.758;55.792;2023-02-12T12:41:13;6.97;;;3.58;;
65210;SDS011;51794;52.758;55.792;2023-02-12T12:44:18;8.25;;;4.57;;
65210;SDS011;51794;52.758;55.792;2023-02-12T13:03:35;6.50;;;3.60;;
65210;SDS011;51794;52.758;55.792;2023-02-12T13:06:39;7.63;;;3.05;;
65210;SDS011;51794;52.758;55.792;2023-02-12T13:12:23;7.03;;;3.92;;
65210;SDS011;51794;52.758;55.792;2023-02-12T13:15:13;6.70;;;3.88;;
65210;SDS011;51794;52.758;55.792;2023-02-12T13:17:43;5.38;;;3.58;;
65210;SDS011;51794;52.758;55.792;2023-02-12T13:20:21;5.65;;;3.70;;
65210;SDS011;51794;52.758;55.792;2023-02-12T13:23:11;5.38;;;3.50;;
65210;SDS011;51794;52.758;55.792;2023-02-12T13:28:47;7.00;;;3.42;;
65210;SDS011;51794;52.758;55.792;2023-02-12T13:31:19;8.55;;;4.57;;
65210;SDS011;51794;52.758;55.792;2023-02-12T13:33:48;8.35;;;5.43;;
65210;SDS011;51794;52.758;55.792;2023-02-12T13:36:17;8.32;;;4.63;;
65210;SDS011;51794;52.758;55.792;2023-02-12T13:38:57;6.65;;;4.00;;
65210;SDS011;51794;52.758;55.792;2023-02-12T13:41:28;9.52;;;4.57;;
65210;SDS011;51794;52.758;55.792;2023-02-12T13:47:05;7.25;;;4.82;;
65210;SDS011;51794;52.758;55.792;2023-02-12T13:49:44;7.32;;;4.50;;
65210;SDS011;51794;52.758;55.792;2023-02-12T13:52:23;8.70;;;4.78;;
65210;SDS011;51794;52.758;55.792;2023-02-12T14:00:56;6.97;;;4.55;;
65210;SDS011;51794;52.758;55.792;2023-02-12T14:03:35;4.93;;;3.15;;
65210;SDS011;51794;52.758;55.792;2023-02-12T14:06:23;7.85;;;4.40;;
65210;SDS011;51794;52.758;55.792;2023-02-12T14:08:50;7.63;;;4.35;;
65210;SDS011;51794;52.758;55.792;2023-02-12T14:11:31;6.47;;;3.67;;
65210;SDS011;51794;52.758;55.792;2023-02-12T14:13:58;6.22;;;4.03;;
65210;SDS011;51794;52.758;55.792;2023-02-12T14:22:02;5.10;;;3.10;;
65210;SDS011;51794;52.758;55.792;2023-02-12T14:27:16;7.68;;;4.07;;
65210;SDS011;51794;52.758;55.792;2023-02-12T14:38:01;6.05;;;3.50;;
65210;SDS011;51794;52.758;55.792;2023-02-12T14:43:00;6.80;;;3.80;;
65210;SDS011;51794;52.758;55.792;2023-02-12T14:45:31;7.43;;;4.00;;
65210;SDS011;51794;52.758;55.792;2023-02-12T14:48:02;9.10;;;4.95;;
65210;SDS011;51794;52.758;55.792;2023-02-12T14:50:30;9.95;;;4.95;;
65210;SDS011;51794;52.758;55.792;2023-02-12T14:53:03;8.93;;;4.13;;
65210;SDS011;51794;52.758;55.792;2023-02-12T14:55:38;6.45;;;3.47;;
65210;SDS011;51794;52.758;55.792;2023-02-12T14:58:14;7.15;;;3.53;;
65210;SDS011;51794;52.758;55.792;2023-02-12T15:00:44;6.63;;;3.85;;
65210;SDS011;51794;52.758;55.792;2023-02-12T15:05:43;7.80;;;4.15;;
65210;SDS011;51794;52.758;55.792;2023-02-12T15:11:11;3.63;;;2.40;;
65210;SDS011;51794;52.758;55.792;2023-02-12T15:16:31;5.78;;;3.53;;
65210;SDS011;51794;52.758;55.792;2023-02-12T15:21:40;7.85;;;3.50;;
65210;SDS011;51794;52.758;55.792;2023-02-12T15:24:07;9.60;;;4.53;;
65210;SDS011;51794;52.758;55.792;2023-02-12T15:26:43;6.20;;;3.15;;
65210;SDS011;51794;52.758;55.792;2023-02-12T15:31:48;6.78;;;3.85;;
65210;SDS011;51794;52.758;55.792;2023-02-12T15:34:29;8.73;;;4.15;;
65210;SDS011;51794;52.758;55.792;2023-02-12T15:37:00;9.57;;;4.50;;
65210;SDS011;51794;52.758;55.792;2023-02-12T15:39:31;5.07;;;3.25;;
65210;SDS011;51794;52.758;55.792;2023-02-12T15:42:20;4.00;;;2.58;;
65210;SDS011;51794;52.758;55.792;2023-02-12T15:45:06;7.13;;;3.90;;
65210;SDS011;51794;52.758;55.792;2023-02-12T15:47:42;9.43;;;4.22;;
65210;SDS011;51794;52.758;55.792;2023-02-12T15:50:14;8.68;;;4.80;;
65210;SDS011;51794;52.758;55.792;2023-02-12T15:52:43;5.15;;;3.00;;
65210;SDS011;51794;52.758;55.792;2023-02-12T15:55:21;5.80;;;3.05;;
65210;SDS011;51794;52.758;55.792;2023-02-12T15:57:51;7.60;;;4.03;;
65210;SDS011;51794;52.758;55.792;2023-02-12T16:02:53;5.22;;;2.40;;
65210;SDS011;51794;52.758;55.792;2023-02-12T16:05:20;8.40;;;4.15;;
65210;SDS011;51794;52.758;55.792;2023-02-12T16:07:47;7.28;;;4.00;;
65210;SDS011;51794;52.758;55.792;2023-02-12T16:10:17;7.47;;;3.97;;
65210;SDS011;51794;52.758;55.792;2023-02-12T16:12:45;6.43;;;3.55;;
65210;SDS011;51794;52.758;55.792;2023-02-12T16:15:26;6.95;;;3.85;;
65210;SDS011;51794;52.758;55.792;2023-02-12T16:17:57;5.18;;;3.03;;
65210;SDS011;51794;52.758;55.792;2023-02-12T16:20:27;5.75;;;3.30;;
65210;SDS011;51794;52.758;55.792;2023-02-12T16:22:55;4.90;;;2.58;;
65210;SDS011;51794;52.758;55.792;2023-02-12T16:25:23;5.57;;;3.47;;
65210;SDS011;51794;52.758;55.792;2023-02-12T16:30:28;6.82;;;3.30;;
65210;SDS011;51794;52.758;55.792;2023-02-12T16:32:59;6.95;;;4.30;;
65210;SDS011;51794;52.758;55.792;2023-02-12T16:35:30;4.15;;;2.50;;
65210;SDS011;51794;52.758;55.792;2023-02-12T16:40:29;7.80;;;4.47;;
65210;SDS011;51794;52.758;55.792;2023-02-12T16:42:59;3.63;;;2.05;;
65210;SDS011;51794;52.758;55.792;2023-02-12T16:45:33;7.18;;;4.65;;
65210;SDS011;51794;52.758;55.792;2023-02-12T16:50:33;7.13;;;3.65;;
65210;SDS011;51794;52.758;55.792;2023-02-12T16:55:31;5.35;;;3.53;;
65210;SDS011;51794;52.758;55.792;2023-02-12T16:57:58;5.10;;;2.83;;
65210;SDS011;51794;52.758;55.792;2023-02-12T17:00:25;6.28;;;3.88;;
65210;SDS011;51794;52.758;55.792;2023-02-12T17:02:53;5.97;;;3.53;;
65210;SDS011;51794;52.758;55.792;2023-02-12T17:05:20;5.40;;;2.92;;
65210;SDS011;51794;52.758;55.792;2023-02-12T17:07:47;9.10;;;3.42;;
65210;SDS011;51794;52.758;55.792;2023-02-12T17:10:15;6.30;;;3.33;;
65210;SDS011;51794;52.758;55.792;2023-02-12T17:12:49;6.55;;;3.63;;
65210;SDS011;51794;52.758;55.792;2023-02-12T17:15:24;6.00;;;3.67;;
65210;SDS011;51794;52.758;55.792;2023-02-12T17:17:55;8.55;;;5.15;;
65210;SDS011;51794;52.758;55.792;2023-02-12T17:20:21;6.03;;;3.40;;
65210;SDS011;51794;52.758;55.792;2023-02-12T17:22:50;9.25;;;4.72;;
65210;SDS011;51794;52.758;55.792;2023-02-12T17:25:18;7.85;;;4.05;;
65210;SDS011;51794;52.758;55.792;2023-02-12T17:27:44;8.00;;;4.15;;
65210;SDS011;51794;52.758;55.792;2023-02-12T17:30:13;9.25;;;4.72;;
65210;SDS011;51794;52.758;55.792;2023-02-12T17:32:41;8.48;;;4.40;;
65210;SDS011;51794;52.758;55.792;2023-02-12T17:35:07;8.40;;;4.07;;